sensor_id;sensor_type;location;lat;lon;timestamp;P1;durP1;ratioP1;P2;durP2;ratioP2
71679;SDS011;59512;42.662;23.254;2023-06-01T00:01:29;19.05;;;14.23;;
71679;SDS011;59512;42.662;23.254;2023-06-01T00:04:01;17.47;;;13.37;;
71679;SDS011;59512;42.662;23.254;2023-06-01T00:06:26;17.95;;;13.70;;
71679;SDS011;59512;42.662;23.254;2023-06-01T00:08:55;16.60;;;12.73;;
71679;SDS011;59512;42.662;23.254;2023-06-01T00:11:21;16.30;;;10.43;;
71679;SDS011;59512;42.662;23.254;2023-06-01T00:13:47;15.23;;;9.40;;
71679;SDS011;59512;42.662;23.254;2023-06-01T00:16:14;14.70;;;10.45;;
71679;SDS011;59512;42.662;23.254;2023-06-01T00:18:40;13.30;;;9.27;;
71679;SDS011;59512;42.662;23.254;2023-06-01T00:21:05;15.57;;;9.60;;
71679;SDS011;59512;42.662;23.254;2023-06-01T00:23:31;15.40;;;10.40;;
71679;SDS011;59512;42.662;23.254;2023-06-01T00:25:56;14.30;;;9.70;;
71679;SDS011;59512;42.662;23.254;2023-06-01T00:28:22;13.85;;;10.15;;
71679;SDS011;59512;42.662;23.254;2023-06-01T00:30:48;17.10;;;11.00;;
71679;SDS011;59512;42.662;23.254;2023-06-01T00:33:13;14.90;;;10.73;;
71679;SDS011;59512;42.662;23.254;2023-06-01T00:35:39;14.57;;;10.63;;
71679;SDS011;59512;42.662;23.254;2023-06-01T00:38:04;19.98;;;11.18;;
71679;SDS011;59512;42.662;23.254;2023-06-01T00:40:31;15.52;;;11.15;;
71679;SDS011;59512;42.662;23.254;2023-06-01T00:42:57;18.50;;;11.88;;
71679;SDS011;59512;42.662;23.254;2023-06-01T00:45:23;17.17;;;11.47;;
71679;SDS011;59512;42.662;23.254;2023-06-01T00:47:48;17.50;;;10.53;;
71679;SDS011;59512;42.662;23.254;2023-06-01T00:50:13;13.93;;;10.25;;
71679;SDS011;59512;42.662;23.254;2023-06-01T00:52:39;14.75;;;10.43;;
71679;SDS011;59512;42.662;23.254;2023-06-01T00:55:05;16.83;;;12.13;;
71679;SDS011;59512;42.662;23.254;2023-06-01T00:57:32;18.40;;;12.25;;
71679;SDS011;59512;42.662;23.254;2023-06-01T00:59:58;17.40;;;12.00;;
71679;SDS011;59512;42.662;23.254;2023-06-01T01:02:23;17.00;;;12.10;;
71679;SDS011;59512;42.662;23.254;2023-06-01T01:04:48;21.88;;;12.15;;
71679;SDS011;59512;42.662;23.254;2023-06-01T01:13:19;15.93;;;12.43;;
71679;SDS011;59512;42.662;23.254;2023-06-01T01:18:44;18.58;;;12.73;;
71679;SDS011;59512;42.662;23.254;2023-06-01T01:21:12;16.37;;;12.03;;
71679;SDS011;59512;42.662;23.254;2023-06-01T01:29:18;14.25;;;10.88;;
71679;SDS011;59512;42.662;23.254;2023-06-01T01:31:46;17.95;;;11.32;;
71679;SDS011;59512;42.662;23.254;2023-06-01T01:34:14;15.90;;;10.67;;
71679;SDS011;59512;42.662;23.254;2023-06-01T01:36:40;21.38;;;12.13;;
71679;SDS011;59512;42.662;23.254;2023-06-01T01:39:05;15.37;;;11.30;;
71679;SDS011;59512;42.662;23.254;2023-06-01T01:41:31;14.50;;;11.33;;
71679;SDS011;59512;42.662;23.254;2023-06-01T01:43:56;14.23;;;10.67;;
71679;SDS011;59512;42.662;23.254;2023-06-01T01:46:36;16.95;;;11.70;;
71679;SDS011;59512;42.662;23.254;2023-06-01T01:52:05;16.77;;;13.07;;
71679;SDS011;59512;42.662;23.254;2023-06-01T01:54:35;19.15;;;13.40;;
71679;SDS011;59512;42.662;23.254;2023-06-01T01:57:02;18.07;;;13.83;;
71679;SDS011;59512;42.662;23.254;2023-06-01T01:59:30;17.73;;;13.02;;
71679;SDS011;59512;42.662;23.254;2023-06-01T02:01:55;23.10;;;14.23;;
71679;SDS011;59512;42.662;23.254;2023-06-01T02:04:21;18.70;;;14.17;;
71679;SDS011;59512;42.662;23.254;2023-06-01T02:06:46;21.65;;;14.73;;
71679;SDS011;59512;42.662;23.254;2023-06-01T02:09:12;20.00;;;15.03;;
71679;SDS011;59512;42.662;23.254;2023-06-01T02:11:37;20.03;;;14.63;;
71679;SDS011;59512;42.662;23.254;2023-06-01T02:14:03;19.33;;;15.37;;
71679;SDS011;59512;42.662;23.254;2023-06-01T02:16:29;19.00;;;14.93;;
71679;SDS011;59512;42.662;23.254;2023-06-01T02:18:55;21.83;;;15.43;;
71679;SDS011;59512;42.662;23.254;2023-06-01T02:21:22;22.40;;;14.50;;
71679;SDS011;59512;42.662;23.254;2023-06-01T02:23:48;19.13;;;14.65;;
71679;SDS011;59512;42.662;23.254;2023-06-01T02:26:13;23.43;;;14.83;;
71679;SDS011;59512;42.662;23.254;2023-06-01T02:28:39;16.50;;;12.47;;
71679;SDS011;59512;42.662;23.254;2023-06-01T02:31:06;15.20;;;11.82;;
71679;SDS011;59512;42.662;23.254;2023-06-01T02:33:32;15.52;;;11.85;;
71679;SDS011;59512;42.662;23.254;2023-06-01T02:35:57;15.82;;;11.35;;
71679;SDS011;59512;42.662;23.254;2023-06-01T02:38:23;16.23;;;11.60;;
71679;SDS011;59512;42.662;23.254;2023-06-01T02:40:49;16.20;;;12.17;;
71679;SDS011;59512;42.662;23.254;2023-06-01T02:43:14;19.30;;;12.77;;
71679;SDS011;59512;42.662;23.254;2023-06-01T02:45:39;17.23;;;12.27;;
71679;SDS011;59512;42.662;23.254;2023-06-01T02:48:05;18.30;;;12.60;;
71679;SDS011;59512;42.662;23.254;2023-06-01T02:50:30;18.23;;;12.80;;
71679;SDS011;59512;42.662;23.254;2023-06-01T02:52:56;17.27;;;12.93;;
71679;SDS011;59512;42.662;23.254;2023-06-01T02:55:21;19.30;;;12.95;;
71679;SDS011;59512;42.662;23.254;2023-06-01T02:57:46;20.70;;;13.87;;
71679;SDS011;59512;42.662;23.254;2023-06-01T03:00:12;16.70;;;12.37;;
71679;SDS011;59512;42.662;23.254;2023-06-01T03:02:47;19.23;;;12.35;;
71679;SDS011;59512;42.662;23.254;2023-06-01T03:05:13;20.50;;;13.23;;
71679;SDS011;59512;42.662;23.254;2023-06-01T03:07:42;16.92;;;11.57;;
71679;SDS011;59512;42.662;23.254;2023-06-01T03:10:08;17.00;;;11.68;;
71679;SDS011;59512;42.662;23.254;2023-06-01T03:12:34;16.75;;;11.15;;
71679;SDS011;59512;42.662;23.254;2023-06-01T03:14:59;16.53;;;11.57;;
71679;SDS011;59512;42.662;23.254;2023-06-01T03:17:25;19.23;;;12.70;;
71679;SDS011;59512;42.662;23.254;2023-06-01T03:19:50;16.93;;;12.27;;
71679;SDS011;59512;42.662;23.254;2023-06-01T03:22:16;18.42;;;12.38;;
71679;SDS011;59512;42.662;23.254;2023-06-01T03:24:41;15.03;;;11.37;;
71679;SDS011;59512;42.662;23.254;2023-06-01T03:27:07;18.90;;;10.73;;
71679;SDS011;59512;42.662;23.254;2023-06-01T03:29:33;20.30;;;11.20;;
71679;SDS011;59512;42.662;23.254;2023-06-01T03:31:58;18.67;;;12.10;;
71679;SDS011;59512;42.662;23.254;2023-06-01T03:34:24;18.02;;;12.80;;
71679;SDS011;59512;42.662;23.254;2023-06-01T03:36:52;19.23;;;12.00;;
71679;SDS011;59512;42.662;23.254;2023-06-01T03:39:18;16.30;;;11.50;;
71679;SDS011;59512;42.662;23.254;2023-06-01T03:41:43;19.90;;;10.90;;
71679;SDS011;59512;42.662;23.254;2023-06-01T03:44:12;17.90;;;11.50;;
71679;SDS011;59512;42.662;23.254;2023-06-01T03:46:38;19.73;;;13.57;;
71679;SDS011;59512;42.662;23.254;2023-06-01T03:49:04;21.27;;;13.98;;
71679;SDS011;59512;42.662;23.254;2023-06-01T03:51:30;19.93;;;12.30;;
71679;SDS011;59512;42.662;23.254;2023-06-01T03:53:56;17.58;;;11.57;;
71679;SDS011;59512;42.662;23.254;2023-06-01T03:56:21;16.83;;;11.20;;
71679;SDS011;59512;42.662;23.254;2023-06-01T03:58:47;17.73;;;10.98;;
71679;SDS011;59512;42.662;23.254;2023-06-01T04:01:13;19.43;;;11.97;;
71679;SDS011;59512;42.662;23.254;2023-06-01T04:03:41;18.48;;;11.63;;
71679;SDS011;59512;42.662;23.254;2023-06-01T04:06:08;17.65;;;11.55;;
71679;SDS011;59512;42.662;23.254;2023-06-01T04:08:37;17.63;;;11.32;;
71679;SDS011;59512;42.662;23.254;2023-06-01T04:11:12;16.53;;;11.33;;
71679;SDS011;59512;42.662;23.254;2023-06-01T04:13:38;17.65;;;12.00;;
71679;SDS011;59512;42.662;23.254;2023-06-01T04:16:04;30.97;;;19.30;;
71679;SDS011;59512;42.662;23.254;2023-06-01T04:18:29;42.28;;;28.02;;
71679;SDS011;59512;42.662;23.254;2023-06-01T04:20:55;16.63;;;12.40;;
71679;SDS011;59512;42.662;23.254;2023-06-01T04:23:21;17.30;;;12.50;;
71679;SDS011;59512;42.662;23.254;2023-06-01T04:25:47;18.83;;;12.82;;
71679;SDS011;59512;42.662;23.254;2023-06-01T04:28:16;18.88;;;13.10;;
71679;SDS011;59512;42.662;23.254;2023-06-01T04:30:43;18.17;;;12.68;;
71679;SDS011;59512;42.662;23.254;2023-06-01T04:33:12;21.63;;;13.00;;
71679;SDS011;59512;42.662;23.254;2023-06-01T04:35:38;16.27;;;11.30;;
71679;SDS011;59512;42.662;23.254;2023-06-01T04:38:04;17.60;;;12.55;;
71679;SDS011;59512;42.662;23.254;2023-06-01T04:40:29;17.90;;;12.10;;
71679;SDS011;59512;42.662;23.254;2023-06-01T04:42:55;18.20;;;12.67;;
71679;SDS011;59512;42.662;23.254;2023-06-01T04:45:24;18.60;;;13.30;;
71679;SDS011;59512;42.662;23.254;2023-06-01T04:47:50;20.77;;;14.55;;
71679;SDS011;59512;42.662;23.254;2023-06-01T04:50:16;17.27;;;12.80;;
71679;SDS011;59512;42.662;23.254;2023-06-01T04:52:42;17.53;;;12.03;;
71679;SDS011;59512;42.662;23.254;2023-06-01T04:55:08;21.45;;;14.18;;
71679;SDS011;59512;42.662;23.254;2023-06-01T04:57:35;22.55;;;14.40;;
71679;SDS011;59512;42.662;23.254;2023-06-01T05:00:01;24.67;;;16.27;;
71679;SDS011;59512;42.662;23.254;2023-06-01T05:02:29;23.10;;;17.60;;
71679;SDS011;59512;42.662;23.254;2023-06-01T05:04:54;23.97;;;17.93;;
71679;SDS011;59512;42.662;23.254;2023-06-01T05:07:20;24.20;;;16.98;;
71679;SDS011;59512;42.662;23.254;2023-06-01T05:09:46;25.83;;;18.80;;
71679;SDS011;59512;42.662;23.254;2023-06-01T05:12:13;27.17;;;18.38;;
71679;SDS011;59512;42.662;23.254;2023-06-01T05:14:39;25.77;;;18.77;;
71679;SDS011;59512;42.662;23.254;2023-06-01T05:17:05;26.80;;;18.13;;
71679;SDS011;59512;42.662;23.254;2023-06-01T05:19:30;23.90;;;17.20;;
71679;SDS011;59512;42.662;23.254;2023-06-01T05:21:55;22.60;;;17.67;;
71679;SDS011;59512;42.662;23.254;2023-06-01T05:24:21;24.80;;;17.10;;
71679;SDS011;59512;42.662;23.254;2023-06-01T05:26:46;22.90;;;17.43;;
71679;SDS011;59512;42.662;23.254;2023-06-01T05:29:12;26.17;;;18.40;;
71679;SDS011;59512;42.662;23.254;2023-06-01T05:31:37;26.38;;;18.60;;
71679;SDS011;59512;42.662;23.254;2023-06-01T05:34:02;25.75;;;18.10;;
71679;SDS011;59512;42.662;23.254;2023-06-01T05:36:28;27.00;;;18.73;;
71679;SDS011;59512;42.662;23.254;2023-06-01T05:38:53;26.00;;;19.03;;
71679;SDS011;59512;42.662;23.254;2023-06-01T05:41:19;36.67;;;20.53;;
71679;SDS011;59512;42.662;23.254;2023-06-01T05:43:44;30.63;;;20.30;;
71679;SDS011;59512;42.662;23.254;2023-06-01T05:46:10;30.00;;;20.40;;
71679;SDS011;59512;42.662;23.254;2023-06-01T05:48:35;25.50;;;17.90;;
71679;SDS011;59512;42.662;23.254;2023-06-01T05:51:01;27.48;;;18.27;;
71679;SDS011;59512;42.662;23.254;2023-06-01T05:53:26;24.90;;;18.23;;
71679;SDS011;59512;42.662;23.254;2023-06-01T05:55:52;29.33;;;20.27;;
71679;SDS011;59512;42.662;23.254;2023-06-01T05:58:19;32.03;;;22.30;;
71679;SDS011;59512;42.662;23.254;2023-06-01T06:00:44;33.17;;;21.67;;
71679;SDS011;59512;42.662;23.254;2023-06-01T06:03:10;32.97;;;22.50;;
71679;SDS011;59512;42.662;23.254;2023-06-01T06:05:36;37.60;;;26.30;;
71679;SDS011;59512;42.662;23.254;2023-06-01T06:08:01;36.17;;;25.50;;
71679;SDS011;59512;42.662;23.254;2023-06-01T06:10:27;38.67;;;26.52;;
71679;SDS011;59512;42.662;23.254;2023-06-01T06:12:53;37.40;;;25.20;;
71679;SDS011;59512;42.662;23.254;2023-06-01T06:15:18;35.53;;;24.50;;
71679;SDS011;59512;42.662;23.254;2023-06-01T06:17:43;37.13;;;26.33;;
71679;SDS011;59512;42.662;23.254;2023-06-01T06:20:09;34.58;;;24.55;;
71679;SDS011;59512;42.662;23.254;2023-06-01T06:22:35;33.10;;;23.53;;
71679;SDS011;59512;42.662;23.254;2023-06-01T06:25:01;33.20;;;23.33;;
71679;SDS011;59512;42.662;23.254;2023-06-01T06:27:26;33.37;;;22.67;;
71679;SDS011;59512;42.662;23.254;2023-06-01T06:29:52;27.20;;;20.97;;
71679;SDS011;59512;42.662;23.254;2023-06-01T06:32:17;28.97;;;20.93;;
71679;SDS011;59512;42.662;23.254;2023-06-01T06:34:45;28.83;;;21.42;;
71679;SDS011;59512;42.662;23.254;2023-06-01T06:37:10;28.73;;;21.67;;
71679;SDS011;59512;42.662;23.254;2023-06-01T06:39:36;29.60;;;21.43;;
71679;SDS011;59512;42.662;23.254;2023-06-01T06:42:02;32.17;;;23.27;;
71679;SDS011;59512;42.662;23.254;2023-06-01T06:44:28;30.30;;;23.15;;
71679;SDS011;59512;42.662;23.254;2023-06-01T06:46:54;29.93;;;23.03;;
71679;SDS011;59512;42.662;23.254;2023-06-01T06:49:20;28.02;;;20.40;;
71679;SDS011;59512;42.662;23.254;2023-06-01T06:51:45;28.17;;;20.23;;
71679;SDS011;59512;42.662;23.254;2023-06-01T06:54:11;28.80;;;20.23;;
71679;SDS011;59512;42.662;23.254;2023-06-01T06:56:37;24.67;;;18.87;;
71679;SDS011;59512;42.662;23.254;2023-06-01T06:59:02;28.00;;;18.57;;
71679;SDS011;59512;42.662;23.254;2023-06-01T07:01:28;26.83;;;18.03;;
71679;SDS011;59512;42.662;23.254;2023-06-01T07:03:53;32.08;;;19.98;;
71679;SDS011;59512;42.662;23.254;2023-06-01T07:06:20;28.43;;;18.83;;
71679;SDS011;59512;42.662;23.254;2023-06-01T07:08:47;26.75;;;18.20;;
71679;SDS011;59512;42.662;23.254;2023-06-01T07:11:13;27.38;;;19.75;;
71679;SDS011;59512;42.662;23.254;2023-06-01T07:13:38;25.97;;;19.27;;
71679;SDS011;59512;42.662;23.254;2023-06-01T07:16:04;30.50;;;19.93;;
71679;SDS011;59512;42.662;23.254;2023-06-01T07:18:30;27.67;;;19.77;;
71679;SDS011;59512;42.662;23.254;2023-06-01T07:20:56;24.77;;;18.17;;
71679;SDS011;59512;42.662;23.254;2023-06-01T07:23:22;26.73;;;18.77;;
71679;SDS011;59512;42.662;23.254;2023-06-01T07:25:48;27.93;;;19.47;;
71679;SDS011;59512;42.662;23.254;2023-06-01T07:28:13;29.13;;;19.90;;
71679;SDS011;59512;42.662;23.254;2023-06-01T07:30:40;30.95;;;19.98;;
71679;SDS011;59512;42.662;23.254;2023-06-01T07:33:06;29.33;;;20.98;;
71679;SDS011;59512;42.662;23.254;2023-06-01T07:35:31;27.43;;;19.20;;
71679;SDS011;59512;42.662;23.254;2023-06-01T07:37:58;28.98;;;19.88;;
71679;SDS011;59512;42.662;23.254;2023-06-01T07:40:23;26.67;;;18.03;;
71679;SDS011;59512;42.662;23.254;2023-06-01T07:42:49;25.30;;;18.20;;
71679;SDS011;59512;42.662;23.254;2023-06-01T07:45:14;27.23;;;17.17;;
71679;SDS011;59512;42.662;23.254;2023-06-01T07:47:40;24.27;;;17.67;;
71679;SDS011;59512;42.662;23.254;2023-06-01T07:50:06;25.40;;;17.23;;
71679;SDS011;59512;42.662;23.254;2023-06-01T07:52:32;23.58;;;16.58;;
71679;SDS011;59512;42.662;23.254;2023-06-01T07:54:58;26.20;;;17.20;;
71679;SDS011;59512;42.662;23.254;2023-06-01T07:57:23;22.27;;;16.63;;
71679;SDS011;59512;42.662;23.254;2023-06-01T07:59:49;23.90;;;16.70;;
71679;SDS011;59512;42.662;23.254;2023-06-01T08:02:14;24.10;;;15.87;;
71679;SDS011;59512;42.662;23.254;2023-06-01T08:04:40;21.92;;;15.13;;
71679;SDS011;59512;42.662;23.254;2023-06-01T08:07:06;22.00;;;15.60;;
71679;SDS011;59512;42.662;23.254;2023-06-01T08:09:32;24.50;;;15.55;;
71679;SDS011;59512;42.662;23.254;2023-06-01T08:11:57;21.43;;;15.13;;
71679;SDS011;59512;42.662;23.254;2023-06-01T08:14:23;25.75;;;16.98;;
71679;SDS011;59512;42.662;23.254;2023-06-01T08:16:49;24.73;;;16.70;;
71679;SDS011;59512;42.662;23.254;2023-06-01T08:19:16;26.02;;;17.50;;
71679;SDS011;59512;42.662;23.254;2023-06-01T08:21:41;23.93;;;16.53;;
71679;SDS011;59512;42.662;23.254;2023-06-01T08:24:07;24.60;;;15.30;;
71679;SDS011;59512;42.662;23.254;2023-06-01T08:26:36;23.00;;;16.42;;
71679;SDS011;59512;42.662;23.254;2023-06-01T08:29:02;23.63;;;15.83;;
71679;SDS011;59512;42.662;23.254;2023-06-01T08:31:28;22.80;;;16.92;;
71679;SDS011;59512;42.662;23.254;2023-06-01T08:33:53;25.10;;;16.73;;
71679;SDS011;59512;42.662;23.254;2023-06-01T08:36:20;22.95;;;15.35;;
71679;SDS011;59512;42.662;23.254;2023-06-01T08:38:46;21.43;;;15.80;;
71679;SDS011;59512;42.662;23.254;2023-06-01T08:43:50;22.48;;;15.90;;
71679;SDS011;59512;42.662;23.254;2023-06-01T08:46:20;23.08;;;16.23;;
71679;SDS011;59512;42.662;23.254;2023-06-01T08:48:46;24.13;;;16.05;;
71679;SDS011;59512;42.662;23.254;2023-06-01T08:51:13;28.50;;;16.90;;
71679;SDS011;59512;42.662;23.254;2023-06-01T08:53:39;24.90;;;17.58;;
71679;SDS011;59512;42.662;23.254;2023-06-01T08:56:07;26.17;;;17.20;;
71679;SDS011;59512;42.662;23.254;2023-06-01T08:58:32;25.02;;;15.85;;
71679;SDS011;59512;42.662;23.254;2023-06-01T09:00:58;24.80;;;17.80;;
71679;SDS011;59512;42.662;23.254;2023-06-01T09:03:24;25.00;;;16.57;;
71679;SDS011;59512;42.662;23.254;2023-06-01T09:05:50;24.20;;;17.10;;
71679;SDS011;59512;42.662;23.254;2023-06-01T09:08:15;26.80;;;17.27;;
71679;SDS011;59512;42.662;23.254;2023-06-01T09:10:41;24.92;;;16.25;;
71679;SDS011;59512;42.662;23.254;2023-06-01T09:13:07;26.87;;;17.63;;
71679;SDS011;59512;42.662;23.254;2023-06-01T09:15:32;24.17;;;17.05;;
71679;SDS011;59512;42.662;23.254;2023-06-01T09:18:08;26.50;;;17.00;;
71679;SDS011;59512;42.662;23.254;2023-06-01T09:20:37;23.10;;;15.35;;
71679;SDS011;59512;42.662;23.254;2023-06-01T09:23:04;25.93;;;17.57;;
71679;SDS011;59512;42.662;23.254;2023-06-01T09:25:30;22.60;;;16.17;;
71679;SDS011;59512;42.662;23.254;2023-06-01T09:27:57;22.63;;;15.25;;
71679;SDS011;59512;42.662;23.254;2023-06-01T09:30:25;21.40;;;14.48;;
71679;SDS011;59512;42.662;23.254;2023-06-01T09:33:06;23.45;;;13.90;;
71679;SDS011;59512;42.662;23.254;2023-06-01T09:35:40;25.80;;;16.90;;
71679;SDS011;59512;42.662;23.254;2023-06-01T09:38:07;24.83;;;15.68;;
71679;SDS011;59512;42.662;23.254;2023-06-01T09:40:33;23.13;;;14.10;;
71679;SDS011;59512;42.662;23.254;2023-06-01T09:42:59;20.15;;;13.55;;
71679;SDS011;59512;42.662;23.254;2023-06-01T09:45:25;18.13;;;13.27;;
71679;SDS011;59512;42.662;23.254;2023-06-01T09:47:51;20.97;;;12.50;;
71679;SDS011;59512;42.662;23.254;2023-06-01T09:50:36;24.20;;;14.23;;
71679;SDS011;59512;42.662;23.254;2023-06-01T09:53:03;20.67;;;13.50;;
71679;SDS011;59512;42.662;23.254;2023-06-01T09:55:30;18.87;;;12.43;;
71679;SDS011;59512;42.662;23.254;2023-06-01T10:00:53;11.48;;;8.00;;
71679;SDS011;59512;42.662;23.254;2023-06-01T10:03:20;10.47;;;6.20;;
71679;SDS011;59512;42.662;23.254;2023-06-01T10:05:46;11.63;;;6.07;;
71679;SDS011;59512;42.662;23.254;2023-06-01T10:08:14;9.75;;;6.53;;
71679;SDS011;59512;42.662;23.254;2023-06-01T10:10:41;9.52;;;5.88;;
71679;SDS011;59512;42.662;23.254;2023-06-01T10:13:10;9.13;;;6.80;;
71679;SDS011;59512;42.662;23.254;2023-06-01T10:15:36;12.90;;;8.15;;
71679;SDS011;59512;42.662;23.254;2023-06-01T10:18:02;12.57;;;8.50;;
71679;SDS011;59512;42.662;23.254;2023-06-01T10:20:31;12.67;;;9.10;;
71679;SDS011;59512;42.662;23.254;2023-06-01T10:22:58;13.40;;;9.48;;
71679;SDS011;59512;42.662;23.254;2023-06-01T10:25:49;14.18;;;10.10;;
71679;SDS011;59512;42.662;23.254;2023-06-01T10:28:14;13.65;;;10.60;;
71679;SDS011;59512;42.662;23.254;2023-06-01T10:30:41;14.85;;;10.15;;
71679;SDS011;59512;42.662;23.254;2023-06-01T10:33:06;13.63;;;9.43;;
71679;SDS011;59512;42.662;23.254;2023-06-01T10:40:38;14.57;;;10.83;;
71679;SDS011;59512;42.662;23.254;2023-06-01T10:43:04;14.50;;;9.93;;
71679;SDS011;59512;42.662;23.254;2023-06-01T10:48:09;15.30;;;12.13;;
71679;SDS011;59512;42.662;23.254;2023-06-01T10:50:36;17.87;;;12.80;;
71679;SDS011;59512;42.662;23.254;2023-06-01T10:59:05;14.70;;;11.90;;
71679;SDS011;59512;42.662;23.254;2023-06-01T11:01:33;16.50;;;12.30;;
71679;SDS011;59512;42.662;23.254;2023-06-01T11:04:00;18.50;;;11.67;;
71679;SDS011;59512;42.662;23.254;2023-06-01T11:06:30;18.40;;;12.45;;
71679;SDS011;59512;42.662;23.254;2023-06-01T11:09:01;20.10;;;12.38;;
71679;SDS011;59512;42.662;23.254;2023-06-01T11:12:15;14.55;;;9.95;;
71679;SDS011;59512;42.662;23.254;2023-06-01T11:14:20;13.73;;;10.13;;
71679;SDS011;59512;42.662;23.254;2023-06-01T11:16:48;17.90;;;11.73;;
71679;SDS011;59512;42.662;23.254;2023-06-01T11:19:24;12.52;;;8.88;;
71679;SDS011;59512;42.662;23.254;2023-06-01T11:21:54;17.98;;;13.07;;
71679;SDS011;59512;42.662;23.254;2023-06-01T11:24:25;16.38;;;11.00;;
71679;SDS011;59512;42.662;23.254;2023-06-01T11:26:56;19.13;;;11.60;;
71679;SDS011;59512;42.662;23.254;2023-06-01T11:29:22;14.73;;;10.53;;
71679;SDS011;59512;42.662;23.254;2023-06-01T11:37:16;11.65;;;8.70;;
71679;SDS011;59512;42.662;23.254;2023-06-01T11:39:45;12.88;;;9.15;;
71679;SDS011;59512;42.662;23.254;2023-06-01T11:42:15;11.10;;;8.43;;
71679;SDS011;59512;42.662;23.254;2023-06-01T11:44:45;12.88;;;9.63;;
71679;SDS011;59512;42.662;23.254;2023-06-01T11:47:19;14.73;;;9.87;;
71679;SDS011;59512;42.662;23.254;2023-06-01T11:49:45;12.20;;;7.80;;
71679;SDS011;59512;42.662;23.254;2023-06-01T11:52:13;10.03;;;6.33;;
71679;SDS011;59512;42.662;23.254;2023-06-01T11:54:38;10.40;;;6.72;;
71679;SDS011;59512;42.662;23.254;2023-06-01T11:57:04;8.00;;;4.90;;
71679;SDS011;59512;42.662;23.254;2023-06-01T11:59:38;9.25;;;4.30;;
71679;SDS011;59512;42.662;23.254;2023-06-01T12:02:16;10.15;;;3.95;;
71679;SDS011;59512;42.662;23.254;2023-06-01T12:04:41;9.18;;;3.95;;
71679;SDS011;59512;42.662;23.254;2023-06-01T12:07:08;10.93;;;4.50;;
71679;SDS011;59512;42.662;23.254;2023-06-01T12:09:34;10.20;;;5.25;;
71679;SDS011;59512;42.662;23.254;2023-06-01T12:11:59;9.97;;;4.93;;
71679;SDS011;59512;42.662;23.254;2023-06-01T12:14:25;10.95;;;6.07;;
71679;SDS011;59512;42.662;23.254;2023-06-01T12:16:54;11.30;;;6.40;;
71679;SDS011;59512;42.662;23.254;2023-06-01T12:19:23;9.50;;;5.97;;
71679;SDS011;59512;42.662;23.254;2023-06-01T12:21:51;9.43;;;5.27;;
71679;SDS011;59512;42.662;23.254;2023-06-01T12:24:25;8.90;;;5.60;;
71679;SDS011;59512;42.662;23.254;2023-06-01T12:26:52;9.27;;;6.00;;
71679;SDS011;59512;42.662;23.254;2023-06-01T12:29:33;11.20;;;6.20;;
71679;SDS011;59512;42.662;23.254;2023-06-01T12:31:59;10.55;;;6.38;;
71679;SDS011;59512;42.662;23.254;2023-06-01T12:34:25;8.63;;;5.23;;
71679;SDS011;59512;42.662;23.254;2023-06-01T12:36:50;7.23;;;4.40;;
71679;SDS011;59512;42.662;23.254;2023-06-01T12:39:15;8.50;;;4.70;;
71679;SDS011;59512;42.662;23.254;2023-06-01T12:42:00;9.53;;;4.30;;
71679;SDS011;59512;42.662;23.254;2023-06-01T12:44:27;9.55;;;4.20;;
71679;SDS011;59512;42.662;23.254;2023-06-01T12:46:56;6.97;;;3.67;;
71679;SDS011;59512;42.662;23.254;2023-06-01T12:49:25;8.82;;;4.47;;
71679;SDS011;59512;42.662;23.254;2023-06-01T12:51:51;11.00;;;4.53;;
71679;SDS011;59512;42.662;23.254;2023-06-01T12:54:17;7.23;;;4.00;;
71679;SDS011;59512;42.662;23.254;2023-06-01T12:56:43;7.75;;;3.78;;
71679;SDS011;59512;42.662;23.254;2023-06-01T12:59:08;7.57;;;3.67;;
71679;SDS011;59512;42.662;23.254;2023-06-01T13:01:34;7.40;;;3.40;;
71679;SDS011;59512;42.662;23.254;2023-06-01T13:04:00;7.13;;;3.90;;
71679;SDS011;59512;42.662;23.254;2023-06-01T13:06:28;8.00;;;4.50;;
71679;SDS011;59512;42.662;23.254;2023-06-01T13:08:53;11.63;;;3.90;;
71679;SDS011;59512;42.662;23.254;2023-06-01T13:11:19;7.35;;;3.90;;
71679;SDS011;59512;42.662;23.254;2023-06-01T13:13:44;6.50;;;3.27;;
71679;SDS011;59512;42.662;23.254;2023-06-01T13:16:10;6.90;;;3.27;;
71679;SDS011;59512;42.662;23.254;2023-06-01T13:18:36;6.57;;;3.10;;
71679;SDS011;59512;42.662;23.254;2023-06-01T13:21:01;7.67;;;2.67;;
71679;SDS011;59512;42.662;23.254;2023-06-01T13:23:27;5.75;;;2.55;;
71679;SDS011;59512;42.662;23.254;2023-06-01T13:25:53;6.63;;;2.53;;
71679;SDS011;59512;42.662;23.254;2023-06-01T13:28:19;7.15;;;2.80;;
71679;SDS011;59512;42.662;23.254;2023-06-01T13:30:44;4.97;;;1.80;;
71679;SDS011;59512;42.662;23.254;2023-06-01T13:33:10;6.70;;;2.30;;
71679;SDS011;59512;42.662;23.254;2023-06-01T13:35:35;4.85;;;1.90;;
71679;SDS011;59512;42.662;23.254;2023-06-01T13:38:01;4.53;;;2.00;;
71679;SDS011;59512;42.662;23.254;2023-06-01T13:40:27;5.82;;;2.28;;
71679;SDS011;59512;42.662;23.254;2023-06-01T13:42:53;5.10;;;1.80;;
71679;SDS011;59512;42.662;23.254;2023-06-01T13:45:19;5.20;;;1.80;;
71679;SDS011;59512;42.662;23.254;2023-06-01T13:47:45;6.65;;;1.80;;
71679;SDS011;59512;42.662;23.254;2023-06-01T13:50:11;3.83;;;1.50;;
71679;SDS011;59512;42.662;23.254;2023-06-01T13:52:40;5.65;;;1.60;;
71679;SDS011;59512;42.662;23.254;2023-06-01T13:55:06;4.33;;;1.47;;
71679;SDS011;59512;42.662;23.254;2023-06-01T13:57:33;6.28;;;1.73;;
71679;SDS011;59512;42.662;23.254;2023-06-01T13:59:58;5.47;;;2.00;;
71679;SDS011;59512;42.662;23.254;2023-06-01T14:02:24;4.87;;;1.47;;
71679;SDS011;59512;42.662;23.254;2023-06-01T14:04:49;6.73;;;2.10;;
71679;SDS011;59512;42.662;23.254;2023-06-01T14:07:15;5.13;;;2.03;;
71679;SDS011;59512;42.662;23.254;2023-06-01T14:09:41;6.00;;;2.30;;
71679;SDS011;59512;42.662;23.254;2023-06-01T14:12:07;7.45;;;2.53;;
71679;SDS011;59512;42.662;23.254;2023-06-01T14:14:32;7.85;;;2.80;;
71679;SDS011;59512;42.662;23.254;2023-06-01T14:16:58;6.75;;;2.90;;
71679;SDS011;59512;42.662;23.254;2023-06-01T14:19:23;10.20;;;3.20;;
71679;SDS011;59512;42.662;23.254;2023-06-01T14:21:51;6.18;;;3.03;;
71679;SDS011;59512;42.662;23.254;2023-06-01T14:24:17;6.87;;;3.33;;
71679;SDS011;59512;42.662;23.254;2023-06-01T14:26:42;6.37;;;3.30;;
71679;SDS011;59512;42.662;23.254;2023-06-01T14:29:08;8.07;;;3.80;;
71679;SDS011;59512;42.662;23.254;2023-06-01T14:31:33;8.02;;;3.70;;
71679;SDS011;59512;42.662;23.254;2023-06-01T14:33:59;8.37;;;4.13;;
71679;SDS011;59512;42.662;23.254;2023-06-01T14:36:24;8.67;;;3.97;;
71679;SDS011;59512;42.662;23.254;2023-06-01T14:38:50;9.63;;;4.80;;
71679;SDS011;59512;42.662;23.254;2023-06-01T14:41:15;8.77;;;4.40;;
71679;SDS011;59512;42.662;23.254;2023-06-01T14:43:40;7.50;;;4.00;;
71679;SDS011;59512;42.662;23.254;2023-06-01T14:46:06;7.77;;;4.27;;
71679;SDS011;59512;42.662;23.254;2023-06-01T14:48:31;7.67;;;4.10;;
71679;SDS011;59512;42.662;23.254;2023-06-01T14:50:57;7.77;;;3.80;;
71679;SDS011;59512;42.662;23.254;2023-06-01T14:53:22;10.30;;;3.95;;
71679;SDS011;59512;42.662;23.254;2023-06-01T14:55:47;8.13;;;4.27;;